Tucson, AZ

3:49 AM MST on September 05, 2015 (GMT -0700)
Base of the Black Mountain | | Change Station
CLOSE
Current Station
Personal Weather Station
Location: Tucson, AZ
Elevation: 2369 ft
Nearby Weather Stations

Elev 2369 ft 32.22 °N, 111.00 °W | Updated 12 seconds ago

Clear
Clear
73.0 °F
Feels Like 73 °F
N
0.0
Wind Variable Wind from East
Gusts 0.0 mph

Today
High -- | Low -- °F
--% Chance of Precip.
Yesterday
High -- | Low -- °F
Precip. -- in
6:01 AM 6:43 PM
Waning Gibbous, 50% visible
Pressure 29.83 in
Visibility 10.0 miles
Clouds Few 19000 ft
Heat Index 73 °F
Dew Point 67 °F
Humidity 81%
Rainfall 0.00 in
Snow Depth Not available.
UV 0.0 out of 12
Pollen .70 out of 12
Air Quality Not available.
Flu Activity Not available.
METAR KDMA 050958Z AUTO 16005KT 10SM FEW190 22/19 A2994 RMK AO2 SLP099 T02170188 $
Pressure 29.83 in
Visibility 10.0 miles
Clouds Few 19000 ft
Heat Index 73 °F
Dew Point 67 °F
Humidity 81%
Rainfall 0.00 in
Snow Depth Not available.
UV 0.0 out of 12
Pollen .70 out of 12
Air Quality Not available.
Flu Activity Not available.
METAR KDMA 050958Z AUTO 16005KT 10SM FEW190 22/19 A2994 RMK AO2 SLP099 T02170188 $
Nowcast | as of 2:48 am MST on September 5, 2015

Weak showers will track northeast at 20 mph across Santa Cruz...cochsie and eastern Pima counties early this morning. These showers will generally produce a trace of rainfall...with some spots receiving as much as 0.05 inches.

×

10-Day Weather Forecast

×

Almanac

Astronomy

Sep. 05, 2015 Rise Set
Actual Time
Civil Twilight
Nautical Twilight
Astronomical Twilight
Moon
Length of Visible Light
Length of Day
Tomorrow will be .
, % of the Moon is Illuminated

Today's Extremes

State Highs State Lows

Community

WunderPhotos

Upload Photos

1,852,439 photos uploaded!

WunderBlogs® & News

Nearby

Air Quality

  Air Quality AQ Index Pollutant
Not available.

Snow Depth

Station Depth Elevation

Earthquake Activity

City Distance Mag. Time & Date
Minimum magnitude displayed is 2.5.

Coastal Water Temperatures

Place Temperature

Stations

Nearby Weather Stations

Station Location Temp. Windchill Dew Point Humidity Wind Precip. Elev Updated Type